Time;durP1;ratioP1;P1;durP2;ratioP2;P2;SDS_P1;SDS_P2;PMS_P1;PMS_P2;Temp;Humidity;BMP_temperature;BMP_pressure;BME280_temperature;BME280_humidity;BME280_pressure;Samples;Min_cycle;Max_cycle;Signal;HPM_P1;HPM_P2
2023/08/26 00:01:55;;;;;;;18.13;14.02;;;19.10;99.90;;;;;;5051386;28;20166;-53
2023/08/26 00:04:21;;;;;;;17.73;12.63;;;19.10;99.90;;;;;;5051617;28;20281;-53
2023/08/26 00:06:47;;;;;;;17.88;13.50;;;19.00;99.90;;;;;;5051420;28;20645;-53
2023/08/26 00:09:13;;;;;;;17.45;14.38;;;19.00;99.90;;;;;;5051705;28;20819;-53
2023/08/26 00:11:38;;;;;;;18.05;13.88;;;19.10;99.90;;;;;;5051290;28;20241;-50
2023/08/26 00:14:04;;;;;;;17.55;15.68;;;19.00;99.90;;;;;;5051270;28;20507;-52
2023/08/26 00:16:30;;;;;;;18.73;15.38;;;19.10;99.90;;;;;;5051354;28;20178;-52
2023/08/26 00:18:59;;;;;;;20.65;15.07;;;19.00;99.90;;;;;;5051453;28;20288;-53
2023/08/26 00:21:27;;;;;;;18.63;15.57;;;19.00;99.90;;;;;;5051390;28;20245;-53
2023/08/26 00:23:53;;;;;;;16.95;14.23;;;18.90;99.90;;;;;;5051244;28;20177;-51
2023/08/26 00:26:19;;;;;;;17.30;13.63;;;19.00;99.90;;;;;;5051144;28;20525;-51
2023/08/26 00:28:44;;;;;;;15.73;11.65;;;18.90;99.90;;;;;;5051508;28;20163;-52
2023/08/26 00:31:10;;;;;;;13.82;11.40;;;18.90;99.90;;;;;;5051351;28;20228;-53
2023/08/26 00:33:36;;;;;;;12.50;10.68;;;18.80;99.90;;;;;;5052270;28;20395;-54
2023/08/26 00:36:02;;;;;;;13.68;10.20;;;18.80;99.90;;;;;;5055010;28;20634;-53
2023/08/26 00:38:30;;;;;;;10.55;9.45;;;18.70;99.90;;;;;;5054698;28;20230;-54
2023/08/26 00:40:55;;;;;;;15.43;8.80;;;18.60;99.90;;;;;;5054971;28;20216;-53
2023/08/26 00:43:21;;;;;;;10.57;7.47;;;18.50;99.90;;;;;;5054797;28;20254;-50
2023/08/26 00:45:50;;;;;;;7.53;6.57;;;18.40;99.90;;;;;;5054909;28;20178;-49
2023/08/26 00:48:16;;;;;;;10.43;7.50;;;18.30;99.90;;;;;;5055143;28;20173;-49
2023/08/26 00:50:47;;;;;;;11.10;7.15;;;18.30;99.90;;;;;;5055285;28;20158;-51
2023/08/26 00:53:14;;;;;;;10.77;7.43;;;18.20;99.90;;;;;;5055131;28;20194;-49
2023/08/26 00:55:40;;;;;;;7.22;5.13;;;18.10;99.90;;;;;;5054503;28;20170;-50
2023/08/26 00:58:06;;;;;;;10.88;6.28;;;17.90;99.90;;;;;;5054538;28;20202;-52
2023/08/26 01:00:36;;;;;;;6.88;6.18;;;17.90;99.90;;;;;;5054486;28;20185;-54
2023/08/26 01:03:07;;;;;;;6.80;5.25;;;17.80;99.90;;;;;;5054499;28;20166;-53
2023/08/26 01:05:36;;;;;;;8.43;6.10;;;17.70;99.90;;;;;;5054420;28;20167;-50
2023/08/26 01:08:06;;;;;;;9.73;6.07;;;17.70;99.90;;;;;;5054429;28;20170;-53
2023/08/26 01:11:05;;;;;;;10.15;6.20;;;17.70;99.90;;;;;;5054434;28;20182;-52
2023/08/26 01:13:39;;;;;;;9.70;5.25;;;17.60;99.90;;;;;;5003832;28;20175;-52
2023/08/26 01:16:07;;;;;;;6.70;4.75;;;17.50;99.90;;;;;;5054316;28;20633;-53
2023/08/26 01:18:32;;;;;;;9.25;5.75;;;17.40;99.90;;;;;;5054170;28;20259;-54
2023/08/26 01:20:59;;;;;;;5.90;4.25;;;17.50;99.90;;;;;;5054272;28;20637;-53
2023/08/26 01:23:52;;;;;;;4.78;3.92;;;17.40;99.90;;;;;;5054070;28;20260;-53
2023/08/26 01:26:17;;;;;;;8.73;4.68;;;17.30;99.90;;;;;;5050162;28;20178;-52
2023/08/26 01:28:43;;;;;;;9.05;4.25;;;17.20;99.90;;;;;;5054378;28;20166;-50
2023/08/26 01:31:13;;;;;;;8.20;3.83;;;17.20;99.90;;;;;;5054222;28;20170;-50
2023/08/26 01:34:00;;;;;;;7.13;4.10;;;17.20;99.90;;;;;;5053862;28;20638;-51
2023/08/26 01:36:28;;;;;;;3.92;3.08;;;17.10;99.90;;;;;;5053641;28;20249;-51
2023/08/26 01:38:56;;;;;;;6.60;3.45;;;17.10;99.90;;;;;;5053824;28;20170;-52
2023/08/26 01:41:24;;;;;;;6.05;3.50;;;17.00;99.90;;;;;;5053862;28;20180;-53
2023/08/26 01:43:51;;;;;;;4.65;3.33;;;17.00;99.90;;;;;;5054084;28;20166;-53
2023/08/26 01:46:17;;;;;;;8.40;3.63;;;17.00;99.90;;;;;;5053722;28;20686;-52
2023/08/26 01:48:43;;;;;;;5.60;4.00;;;17.00;99.90;;;;;;5053971;28;20253;-53
2023/08/26 01:51:09;;;;;;;9.05;3.17;;;16.90;99.90;;;;;;5053866;28;20189;-52
2023/08/26 01:53:34;;;;;;;5.03;3.65;;;16.80;99.90;;;;;;5053408;28;20622;-53
2023/08/26 01:56:00;;;;;;;5.85;3.35;;;16.70;99.90;;;;;;5053211;28;20229;-53
2023/08/26 01:58:25;;;;;;;3.45;3.08;;;16.70;99.90;;;;;;5053364;28;20217;-53
2023/08/26 02:00:51;;;;;;;6.47;3.40;;;16.60;99.90;;;;;;5053417;28;20167;-52
2023/08/26 02:03:17;;;;;;;6.05;3.40;;;16.60;99.90;;;;;;5053369;28;20167;-52
2023/08/26 02:05:43;;;;;;;8.95;3.28;;;16.60;99.90;;;;;;5053685;28;20578;-53
2023/08/26 02:08:09;;;;;;;5.93;3.60;;;16.50;99.90;;;;;;5053290;28;20530;-52
2023/08/26 02:10:34;;;;;;;9.85;3.47;;;16.40;99.90;;;;;;5053276;28;20242;-52
2023/08/26 02:13:00;;;;;;;9.30;3.70;;;16.40;99.90;;;;;;5035378;28;20623;-50
2023/08/26 02:15:25;;;;;;;4.80;3.53;;;16.30;99.90;;;;;;5053177;28;20174;-52
2023/08/26 02:17:51;;;;;;;5.95;3.65;;;16.30;99.90;;;;;;5053030;28;20286;-52
2023/08/26 02:20:17;;;;;;;5.82;3.53;;;16.20;99.90;;;;;;5053113;28;20522;-50
2023/08/26 02:22:42;;;;;;;8.60;3.70;;;16.20;99.90;;;;;;5053431;28;20174;-49
2023/08/26 02:25:08;;;;;;;6.65;3.35;;;16.10;99.90;;;;;;5052929;28;20166;-49
2023/08/26 02:27:34;;;;;;;6.15;4.00;;;16.10;99.90;;;;;;5052880;28;20195;-53
2023/08/26 02:29:59;;;;;;;5.78;3.10;;;16.00;99.90;;;;;;5052849;28;20242;-52
2023/08/26 02:32:25;;;;;;;5.20;3.47;;;16.00;99.90;;;;;;5053065;28;20197;-51
2023/08/26 02:34:50;;;;;;;10.68;3.55;;;16.00;99.90;;;;;;5052796;28;20534;-51
2023/08/26 02:37:16;;;;;;;12.57;4.47;;;15.90;99.90;;;;;;5052535;28;20218;-50
2023/08/26 02:39:42;;;;;;;8.18;4.13;;;15.90;99.90;;;;;;5053460;28;20181;-50
2023/08/26 02:42:07;;;;;;;8.40;4.18;;;15.90;99.90;;;;;;5052619;28;20569;-51
2023/08/26 02:44:33;;;;;;;6.93;4.25;;;15.90;99.90;;;;;;5052603;28;20163;-52
2023/08/26 02:46:58;;;;;;;9.70;3.80;;;15.80;99.90;;;;;;5052808;28;20162;-53
2023/08/26 02:49:26;;;;;;;8.88;3.67;;;15.90;99.90;;;;;;5052661;28;20171;-50
2023/08/26 02:51:51;;;;;;;4.85;3.45;;;15.80;99.90;;;;;;5052446;28;20569;-52
2023/08/26 02:54:16;;;;;;;10.20;3.90;;;15.80;99.90;;;;;;5052409;28;20162;-53
2023/08/26 02:56:42;;;;;;;8.35;3.22;;;15.80;99.90;;;;;;5052227;28;20175;-49
2023/08/26 02:59:08;;;;;;;13.20;3.70;;;15.80;99.90;;;;;;5052312;28;20170;-52
2023/08/26 03:01:33;;;;;;;6.75;3.17;;;16.00;99.90;;;;;;5052232;28;20162;-50
2023/08/26 03:03:59;;;;;;;10.55;3.22;;;15.70;99.90;;;;;;5052235;28;20178;-51
2023/08/26 03:06:24;;;;;;;7.85;3.42;;;15.70;99.90;;;;;;5052167;28;20159;-51
2023/08/26 03:08:50;;;;;;;12.68;3.55;;;15.70;99.90;;;;;;5052145;28;20257;-50
2023/08/26 03:11:15;;;;;;;6.82;2.85;;;15.60;99.90;;;;;;5052160;28;20174;-50
2023/08/26 03:13:41;;;;;;;8.00;3.45;;;15.70;99.90;;;;;;5052399;28;20182;-50
2023/08/26 03:16:08;;;;;;;5.18;2.40;;;15.60;99.90;;;;;;5051923;28;20162;-50
2023/08/26 03:18:33;;;;;;;6.93;2.63;;;15.60;99.90;;;;;;5052101;28;20210;-50
2023/08/26 03:21:04;;;;;;;4.22;2.60;;;15.60;99.90;;;;;;5051878;28;20619;-50
2023/08/26 03:23:29;;;;;;;5.72;2.67;;;15.50;99.90;;;;;;5052165;28;20584;-50
2023/08/26 03:25:55;;;;;;;8.32;2.63;;;15.50;99.90;;;;;;5051907;28;20198;-50
2023/08/26 03:28:21;;;;;;;6.45;2.58;;;15.60;99.90;;;;;;5051998;28;20178;-49
2023/08/26 03:30:46;;;;;;;4.82;2.50;;;15.60;99.90;;;;;;5051753;28;20194;-49
2023/08/26 03:33:12;;;;;;;7.30;2.47;;;15.60;99.90;;;;;;5052222;28;20174;-50
2023/08/26 03:35:39;;;;;;;5.72;2.90;;;15.60;99.90;;;;;;5051630;28;20220;-50
2023/08/26 03:38:04;;;;;;;8.85;2.38;;;15.60;99.90;;;;;;5051479;28;20275;-50
2023/08/26 03:40:30;;;;;;;6.00;2.88;;;15.60;99.90;;;;;;5033716;28;20258;-52
2023/08/26 03:42:56;;;;;;;7.47;3.10;;;15.60;99.90;;;;;;5051045;28;20173;-50
2023/08/26 03:45:21;;;;;;;11.60;3.78;;;15.60;99.90;;;;;;5051800;28;20182;-49
2023/08/26 03:47:47;;;;;;;11.52;3.83;;;15.60;99.90;;;;;;5051500;28;20174;-49
2023/08/26 03:50:12;;;;;;;7.50;2.85;;;15.50;99.90;;;;;;5052150;28;20181;-49
2023/08/26 03:52:38;;;;;;;8.45;3.53;;;15.50;99.90;;;;;;5051442;28;20534;-49
2023/08/26 03:55:04;;;;;;;8.10;3.53;;;15.50;99.90;;;;;;5033614;28;20171;-49
2023/08/26 03:57:30;;;;;;;11.23;3.45;;;15.50;99.90;;;;;;5051586;28;20303;-49
2023/08/26 03:59:55;;;;;;;11.05;3.15;;;15.50;99.90;;;;;;5051417;28;20162;-49
2023/08/26 04:02:21;;;;;;;6.82;3.03;;;15.60;99.90;;;;;;5051363;28;20251;-49
2023/08/26 04:04:46;;;;;;;8.98;3.40;;;15.50;99.90;;;;;;5051361;28;20174;-49
2023/08/26 04:07:12;;;;;;;7.53;2.85;;;15.50;99.90;;;;;;5051695;28;20170;-49
2023/08/26 04:09:38;;;;;;;9.52;2.50;;;15.50;99.90;;;;;;5054330;28;20166;-50
2023/08/26 04:12:04;;;;;;;5.32;2.08;;;15.50;99.90;;;;;;5055469;28;20167;-49
2023/08/26 04:14:29;;;;;;;8.98;2.90;;;15.40;99.90;;;;;;5055661;28;20265;-49
2023/08/26 04:16:55;;;;;;;9.60;2.10;;;15.40;99.90;;;;;;5055452;28;20206;-49
2023/08/26 04:19:20;;;;;;;5.43;2.10;;;15.40;99.90;;;;;;5055238;28;20696;-49
2023/08/26 04:21:46;;;;;;;7.97;2.63;;;15.40;99.90;;;;;;5055471;28;20182;-49
2023/08/26 04:24:12;;;;;;;5.90;3.50;;;15.40;99.90;;;;;;5055660;28;20563;-49
2023/08/26 04:26:37;;;;;;;6.88;2.95;;;15.40;99.90;;;;;;5055385;28;20170;-49
2023/08/26 04:29:03;;;;;;;5.28;2.50;;;15.40;99.90;;;;;;5055153;28;20260;-49
2023/08/26 04:31:29;;;;;;;6.97;2.42;;;15.30;99.90;;;;;;5037282;28;20634;-49
2023/08/26 04:33:54;;;;;;;9.63;3.40;;;15.30;99.90;;;;;;5055058;28;20171;-50
2023/08/26 04:36:20;;;;;;;9.38;3.33;;;15.30;99.90;;;;;;5054919;28;20174;-49
2023/08/26 04:38:45;;;;;;;6.47;2.78;;;15.30;99.90;;;;;;5054968;28;20214;-50
2023/08/26 04:41:11;;;;;;;10.77;3.25;;;15.30;99.90;;;;;;5055320;28;20171;-49
2023/08/26 04:43:36;;;;;;;7.28;2.67;;;15.30;99.90;;;;;;5054876;28;20626;-49
2023/08/26 04:46:02;;;;;;;6.18;3.03;;;15.40;99.90;;;;;;5054868;28;20186;-49
2023/08/26 04:48:28;;;;;;;7.82;3.17;;;15.30;99.90;;;;;;5054804;28;20276;-48
2023/08/26 04:50:54;;;;;;;12.18;3.08;;;15.40;99.90;;;;;;5054673;28;20209;-48
2023/08/26 04:53:20;;;;;;;8.82;3.63;;;15.30;99.90;;;;;;5054671;28;20175;-48
2023/08/26 04:55:52;;;;;;;8.98;2.97;;;15.40;99.90;;;;;;5054625;28;20167;-49
2023/08/26 04:58:18;;;;;;;9.65;3.22;;;15.40;99.90;;;;;;5054535;28;20209;-49
2023/08/26 05:00:44;;;;;;;18.23;3.50;;;15.40;99.90;;;;;;5054978;28;20637;-49
2023/08/26 05:03:10;;;;;;;9.23;3.00;;;15.40;99.90;;;;;;5054604;28;20183;-49
2023/08/26 05:05:39;;;;;;;9.70;3.55;;;15.40;99.90;;;;;;5054398;28;20205;-49
2023/08/26 05:08:04;;;;;;;9.13;3.10;;;15.40;99.90;;;;;;5054477;28;20167;-48
2023/08/26 05:10:30;;;;;;;9.35;3.72;;;15.40;99.90;;;;;;5054842;28;20182;-49
2023/08/26 05:12:56;;;;;;;9.38;3.53;;;15.40;99.90;;;;;;5054376;28;20201;-50
2023/08/26 05:15:22;;;;;;;10.85;3.63;;;15.50;99.90;;;;;;5053854;28;20173;-50
2023/08/26 05:17:47;;;;;;;16.60;4.68;;;15.50;99.90;;;;;;5054105;28;20218;-50
2023/08/26 05:20:13;;;;;;;12.55;4.68;;;15.40;99.90;;;;;;5054180;28;20174;-52
2023/08/26 05:22:40;;;;;;;19.00;5.32;;;15.50;99.90;;;;;;5054207;28;20175;-50
2023/08/26 05:25:07;;;;;;;19.27;4.35;;;15.50;99.90;;;;;;5054321;28;20174;-50
2023/08/26 05:27:32;;;;;;;18.65;4.47;;;15.50;99.90;;;;;;5054007;28;20222;-51
2023/08/26 05:29:58;;;;;;;19.25;4.78;;;15.70;99.90;;;;;;5053989;28;20708;-53
2023/08/26 05:32:24;;;;;;;25.23;5.35;;;15.70;99.90;;;;;;5053972;28;20166;-50
2023/08/26 05:34:49;;;;;;;19.95;4.57;;;15.80;99.90;;;;;;5053838;28;20176;-49
2023/08/26 05:37:15;;;;;;;9.00;3.65;;;15.90;99.90;;;;;;5053538;28;20301;-52
2023/08/26 05:39:40;;;;;;;5.47;2.88;;;16.00;99.90;;;;;;5054478;28;20174;-51
2023/08/26 05:42:06;;;;;;;7.72;2.33;;;16.00;99.90;;;;;;5053965;28;20201;-49
2023/08/26 05:44:32;;;;;;;3.90;2.03;;;15.90;99.90;;;;;;5053728;28;20544;-49
2023/08/26 05:46:57;;;;;;;4.47;1.80;;;16.00;99.90;;;;;;5053236;28;20178;-49
2023/08/26 05:49:23;;;;;;;9.40;2.38;;;16.10;99.90;;;;;;5053628;28;20166;-49
2023/08/26 05:51:48;;;;;;;6.60;2.05;;;16.10;99.90;;;;;;5053590;28;20174;-49
2023/08/26 05:54:14;;;;;;;4.72;2.08;;;16.10;99.90;;;;;;5053996;28;20228;-49
2023/08/26 05:56:39;;;;;;;4.07;2.75;;;16.10;99.90;;;;;;5053996;28;20227;-49
2023/08/26 05:59:05;;;;;;;2.80;1.40;;;16.10;99.90;;;;;;5053394;28;20170;-49
2023/08/26 06:01:30;;;;;;;10.10;2.67;;;16.10;99.90;;;;;;5053276;28;20182;-49
2023/08/26 06:03:56;;;;;;;6.20;2.10;;;16.00;99.90;;;;;;5053317;28;20313;-49
2023/08/26 06:06:21;;;;;;;5.97;1.90;;;16.10;99.90;;;;;;5035290;28;20167;-51
2023/08/26 06:08:47;;;;;;;9.57;2.28;;;16.20;99.90;;;;;;5053197;28;20561;-51
2023/08/26 06:11:12;;;;;;;11.27;2.85;;;16.20;99.90;;;;;;5053725;28;20171;-50
2023/08/26 06:13:38;;;;;;;7.00;2.22;;;16.20;99.90;;;;;;5053200;28;20246;-49
2023/08/26 06:16:04;;;;;;;11.98;2.00;;;16.20;99.90;;;;;;5053548;28;20665;-49
2023/08/26 06:18:29;;;;;;;4.88;1.60;;;16.20;99.90;;;;;;5053053;28;20203;-49
2023/08/26 06:20:55;;;;;;;5.72;1.80;;;16.20;99.90;;;;;;5053052;28;20179;-49
2023/08/26 06:23:21;;;;;;;3.28;1.55;;;16.30;99.90;;;;;;5053138;28;20171;-49
2023/08/26 06:25:56;;;;;;;3.83;1.60;;;16.40;99.90;;;;;;5053110;28;20249;-48
2023/08/26 06:28:23;;;;;;;4.30;1.70;;;16.50;99.90;;;;;;5052954;28;20173;-50
2023/08/26 06:30:49;;;;;;;6.63;1.80;;;16.50;99.90;;;;;;5034368;28;20678;-50
2023/08/26 06:33:15;;;;;;;6.07;1.73;;;16.60;99.90;;;;;;5052926;28;20170;-50
2023/08/26 06:35:45;;;;;;;8.40;1.95;;;16.70;99.90;;;;;;5053133;28;20514;-50
2023/08/26 06:38:11;;;;;;;8.65;1.52;;;16.80;99.90;;;;;;5052978;28;20234;-50
2023/08/26 06:40:36;;;;;;;5.18;2.00;;;16.60;99.90;;;;;;5052709;28;20204;-50
2023/08/26 06:43:03;;;;;;;5.03;1.45;;;16.60;99.90;;;;;;5052618;28;20539;-50
2023/08/26 06:45:30;;;;;;;5.60;1.58;;;16.70;99.90;;;;;;5052638;28;20161;-50
2023/08/26 06:47:55;;;;;;;2.28;1.40;;;16.80;99.90;;;;;;5052784;28;20175;-50
2023/08/26 06:50:22;;;;;;;7.30;1.60;;;16.90;99.90;;;;;;5052418;28;20170;-51
2023/08/26 06:52:49;;;;;;;4.88;1.75;;;16.90;99.90;;;;;;5052616;28;20536;-50
2023/08/26 06:55:15;;;;;;;5.85;1.20;;;17.00;99.90;;;;;;5052659;28;20167;-51
2023/08/26 06:57:40;;;;;;;4.78;1.63;;;17.00;99.90;;;;;;5052629;28;20236;-51
2023/08/26 07:00:08;;;;;;;4.22;1.67;;;17.00;99.90;;;;;;5052314;28;20171;-51
2023/08/26 07:02:34;;;;;;;9.35;1.52;;;17.00;99.90;;;;;;5052192;28;20171;-51
2023/08/26 07:05:00;;;;;;;4.00;1.50;;;17.20;99.90;;;;;;5052183;28;20213;-51
2023/08/26 07:07:25;;;;;;;3.22;1.65;;;17.20;99.90;;;;;;5052191;28;20194;-51
2023/08/26 07:09:51;;;;;;;6.28;1.77;;;17.30;99.90;;;;;;5052346;28;20184;-51
2023/08/26 07:12:17;;;;;;;6.22;1.65;;;17.20;99.90;;;;;;5052072;28;20171;-51
2023/08/26 07:14:42;;;;;;;2.83;1.40;;;17.40;99.90;;;;;;5052432;28;20175;-52
2023/08/26 07:17:08;;;;;;;7.43;1.50;;;17.40;99.90;;;;;;5051892;28;20206;-51
2023/08/26 07:19:33;;;;;;;4.22;1.40;;;17.50;99.90;;;;;;5052460;28;20298;-51
2023/08/26 07:22:00;;;;;;;7.70;1.70;;;17.60;99.90;;;;;;5052086;28;20277;-52
2023/08/26 07:24:25;;;;;;;3.05;1.30;;;17.70;99.90;;;;;;5051858;28;20669;-51
2023/08/26 07:26:51;;;;;;;3.80;1.50;;;17.70;99.90;;;;;;5051889;28;20162;-51
2023/08/26 07:29:17;;;;;;;2.70;1.98;;;17.60;99.90;;;;;;5051792;28;20175;-51
2023/08/26 07:31:42;;;;;;;5.63;1.33;;;17.70;99.90;;;;;;5052124;28;20636;-50
2023/08/26 07:34:08;;;;;;;6.32;1.55;;;17.70;99.90;;;;;;5051960;28;20213;-51
2023/08/26 07:36:34;;;;;;;2.22;1.58;;;17.70;99.90;;;;;;5051542;28;20198;-51
2023/08/26 07:38:59;;;;;;;2.55;1.27;;;17.80;99.90;;;;;;5051397;28;20708;-51
2023/08/26 07:41:25;;;;;;;2.88;1.48;;;17.80;99.90;;;;;;5051594;28;20179;-52
2023/08/26 07:43:51;;;;;;;5.68;1.30;;;18.00;99.90;;;;;;5051363;28;20171;-52
2023/08/26 07:46:18;;;;;;;4.45;1.63;;;17.90;99.90;;;;;;5051748;28;20171;-51
2023/08/26 07:48:44;;;;;;;3.72;1.38;;;18.20;99.90;;;;;;5051519;28;20189;-51
2023/08/26 07:51:10;;;;;;;2.47;1.30;;;18.40;99.90;;;;;;5051958;28;20215;-51
2023/08/26 07:53:35;;;;;;;3.85;1.40;;;18.40;99.90;;;;;;5051455;28;20158;-51
2023/08/26 07:56:01;;;;;;;2.88;1.20;;;18.40;99.90;;;;;;5051374;28;20162;-51
2023/08/26 07:58:26;;;;;;;3.78;1.50;;;18.40;99.90;;;;;;5051175;28;20206;-52
2023/08/26 08:00:52;;;;;;;4.30;1.52;;;18.60;99.90;;;;;;5051289;28;20162;-51
2023/08/26 08:03:18;;;;;;;2.17;1.15;;;18.60;99.90;;;;;;5051342;28;20244;-51
2023/08/26 08:05:43;;;;;;;3.47;1.38;;;18.70;99.90;;;;;;5033807;28;20527;-51
2023/08/26 08:08:09;;;;;;;5.35;1.50;;;18.70;99.90;;;;;;5051638;28;20177;-52
2023/08/26 08:10:35;;;;;;;3.22;1.08;;;18.70;99.90;;;;;;5051441;28;20521;-51
2023/08/26 08:13:00;;;;;;;8.68;1.63;;;18.70;99.90;;;;;;5051527;28;20181;-51
2023/08/26 08:15:26;;;;;;;2.10;1.40;;;18.90;99.90;;;;;;5051318;28;20193;-51
2023/08/26 08:17:52;;;;;;;6.60;2.00;;;18.90;99.90;;;;;;5051172;28;20285;-52
2023/08/26 08:20:19;;;;;;;2.80;1.25;;;19.00;99.90;;;;;;5051148;28;20159;-51
2023/08/26 08:22:45;;;;;;;2.17;1.27;;;19.00;99.90;;;;;;5051394;28;20174;-51
2023/08/26 08:25:11;;;;;;;2.25;1.27;;;19.10;99.90;;;;;;5051587;28;20165;-51
2023/08/26 08:27:37;;;;;;;4.95;2.03;;;19.10;99.90;;;;;;5051347;28;20167;-50
2023/08/26 08:30:04;;;;;;;4.40;1.48;;;19.50;99.90;;;;;;5050978;28;20166;-51
2023/08/26 08:32:29;;;;;;;4.50;1.30;;;19.60;99.90;;;;;;5051133;28;20171;-50
2023/08/26 08:34:55;;;;;;;2.40;1.45;;;19.30;99.90;;;;;;5050982;28;20182;-51
2023/08/26 08:37:21;;;;;;;5.55;1.58;;;19.30;99.90;;;;;;5050700;28;20218;-51
2023/08/26 08:39:47;;;;;;;1.98;1.25;;;19.40;99.90;;;;;;5051010;28;20159;-51
2023/08/26 08:42:17;;;;;;;6.57;1.40;;;19.50;99.90;;;;;;5051381;28;20167;-52
2023/08/26 08:44:46;;;;;;;3.20;1.00;;;19.70;99.90;;;;;;5051608;28;20215;-51
2023/08/26 08:47:12;;;;;;;2.13;1.30;;;21.30;99.90;;;;;;5051262;28;20529;-51
2023/08/26 08:49:38;;;;;;;3.95;1.23;;;19.60;99.90;;;;;;5050954;28;20175;-52
2023/08/26 08:52:07;;;;;;;3.80;1.00;;;19.70;99.90;;;;;;5050919;28;20543;-51
2023/08/26 08:54:34;;;;;;;2.30;0.90;;;19.80;99.90;;;;;;5052094;28;20601;-51
2023/08/26 08:57:03;;;;;;;4.30;1.38;;;19.90;99.90;;;;;;5054735;28;20170;-51
2023/08/26 08:59:32;;;;;;;3.42;1.00;;;19.90;99.90;;;;;;5054910;28;20174;-51
2023/08/26 09:01:58;;;;;;;4.63;1.33;;;20.10;99.90;;;;;;5054604;28;20638;-51
2023/08/26 09:04:25;;;;;;;1.88;1.05;;;20.30;99.90;;;;;;5054730;28;20563;-51
2023/08/26 09:06:51;;;;;;;6.60;1.40;;;20.30;99.90;;;;;;5054647;28;20167;-51
2023/08/26 09:09:18;;;;;;;4.47;1.45;;;20.20;99.90;;;;;;5054401;28;20634;-51
2023/08/26 09:11:43;;;;;;;4.05;1.42;;;20.20;99.90;;;;;;5055052;28;20182;-51
2023/08/26 09:14:09;;;;;;;1.95;1.10;;;20.40;99.90;;;;;;5054778;28;20170;-51
2023/08/26 09:16:35;;;;;;;4.85;1.27;;;20.40;99.90;;;;;;5054243;28;20217;-51
2023/08/26 09:19:01;;;;;;;2.13;1.27;;;20.30;99.90;;;;;;5054057;28;20665;-51
2023/08/26 09:21:27;;;;;;;2.60;1.30;;;20.40;99.90;;;;;;5054213;28;20163;-51
2023/08/26 09:23:53;;;;;;;3.55;1.50;;;20.40;99.90;;;;;;5054152;28;20212;-51
2023/08/26 09:26:22;;;;;;;1.10;1.00;;;20.60;99.90;;;;;;5054022;28;20212;-52
2023/08/26 09:28:50;;;;;;;1.45;1.10;;;20.80;99.90;;;;;;5054055;28;20194;-51
2023/08/26 09:31:17;;;;;;;1.70;1.35;;;20.70;99.90;;;;;;5054027;28;20692;-51
2023/08/26 09:33:47;;;;;;;1.98;1.20;;;20.70;99.90;;;;;;5054493;28;20206;-52
2023/08/26 09:36:13;;;;;;;3.10;1.00;;;20.70;99.90;;;;;;5054371;28;20185;-51
2023/08/26 09:38:50;;;;;;;2.10;1.15;;;19.70;99.90;;;;;;5054112;28;20206;-51
2023/08/26 09:41:23;;;;;;;1.67;1.13;;;20.70;99.90;;;;;;5036022;28;20163;-51
2023/08/26 09:43:49;;;;;;;4.93;1.10;;;21.00;99.90;;;;;;5054052;28;20228;-52
2023/08/26 09:46:21;;;;;;;4.70;1.17;;;21.00;99.90;;;;;;5053757;28;20171;-51
2023/08/26 09:48:50;;;;;;;2.47;1.13;;;21.00;99.90;;;;;;5053773;28;20166;-51
2023/08/26 09:51:28;;;;;;;2.10;0.93;;;20.80;99.90;;;;;;5053651;28;20228;-51
2023/08/26 09:53:54;;;;;;;2.20;1.23;;;20.80;99.90;;;;;;5054016;28;20599;-52
2023/08/26 09:56:23;;;;;;;1.15;1.05;;;21.00;99.90;;;;;;5053836;28;20171;-52
2023/08/26 09:58:49;;;;;;;1.50;1.00;;;21.00;99.90;;;;;;5053731;28;20202;-52
2023/08/26 10:01:17;;;;;;;3.22;1.33;;;21.30;99.90;;;;;;5035629;28;20646;-51
2023/08/26 10:03:46;;;;;;;2.70;1.20;;;21.50;99.90;;;;;;5053805;28;20163;-52
2023/08/26 10:06:13;;;;;;;1.58;1.10;;;21.70;99.90;;;;;;5052437;28;20710;-52
2023/08/26 10:08:40;;;;;;;2.17;1.10;;;21.60;99.90;;;;;;5036287;28;20171;-52
2023/08/26 10:11:07;;;;;;;0.85;0.77;;;21.80;99.90;;;;;;5053300;28;20174;-51
2023/08/26 10:13:36;;;;;;;1.10;0.90;;;21.70;99.90;;;;;;5053190;28;20529;-52
2023/08/26 10:16:05;;;;;;;2.80;1.10;;;21.60;99.90;;;;;;5053428;28;20171;-51
2023/08/26 10:18:41;;;;;;;1.98;1.10;;;21.80;99.90;;;;;;5053035;28;20210;-52
2023/08/26 10:21:07;;;;;;;3.25;1.15;;;21.80;99.90;;;;;;5053128;28;20693;-52
2023/08/26 10:23:33;;;;;;;1.20;1.10;;;22.00;99.90;;;;;;5052969;28;20177;-52
2023/08/26 10:25:59;;;;;;;1.60;1.02;;;22.00;99.90;;;;;;5053237;28;20171;-51
2023/08/26 10:28:26;;;;;;;3.08;1.10;;;22.10;99.90;;;;;;5052969;28;20174;-51
2023/08/26 10:30:54;;;;;;;1.13;0.90;;;21.90;99.90;;;;;;5052805;28;20221;-50
2023/08/26 10:33:20;;;;;;;2.13;1.10;;;22.00;99.90;;;;;;5053088;28;20199;-50
2023/08/26 10:35:59;;;;;;;1.67;1.05;;;22.00;99.90;;;;;;5052970;28;20175;-51
2023/08/26 10:38:25;;;;;;;1.35;0.98;;;21.80;99.90;;;;;;5052202;28;20226;-52
2023/08/26 10:41:08;;;;;;;1.02;0.93;;;22.10;99.90;;;;;;5052626;28;20250;-51
2023/08/26 10:43:34;;;;;;;2.05;1.00;;;22.20;99.90;;;;;;5052871;28;20163;-51
2023/08/26 10:46:01;;;;;;;1.20;1.00;;;22.20;99.90;;;;;;5052815;28;20564;-52
2023/08/26 10:48:26;;;;;;;3.78;1.10;;;22.20;99.90;;;;;;5052789;28;20170;-51
2023/08/26 10:51:01;;;;;;;2.22;1.15;;;22.60;99.90;;;;;;5052426;28;20220;-51
2023/08/26 10:53:27;;;;;;;3.33;1.08;;;22.80;99.90;;;;;;5052470;28;20158;-52
2023/08/26 10:56:11;;;;;;;4.18;1.10;;;22.90;99.90;;;;;;5052320;28;20178;-51
2023/08/26 10:58:46;;;;;;;3.00;1.20;;;23.00;99.90;;;;;;5052157;28;20256;-51
2023/08/26 11:01:12;;;;;;;3.15;1.30;;;23.00;99.90;;;;;;5052598;28;20162;-51
2023/08/26 11:03:38;;;;;;;3.20;1.23;;;22.60;99.90;;;;;;5052144;28;20166;-51
2023/08/26 11:06:05;;;;;;;1.65;1.00;;;23.10;99.90;;;;;;5051949;28;20589;-51
2023/08/26 11:08:31;;;;;;;2.38;1.50;;;22.90;99.90;;;;;;5052256;28;20182;-51
2023/08/26 11:10:58;;;;;;;2.47;1.27;;;22.70;99.90;;;;;;5051990;28;20204;-51
2023/08/26 11:13:23;;;;;;;5.35;1.55;;;22.70;99.90;;;;;;5052031;28;20701;-51
2023/08/26 11:15:50;;;;;;;2.97;1.25;;;22.50;99.90;;;;;;5052034;28;20249;-51
2023/08/26 11:18:16;;;;;;;4.82;1.20;;;22.70;99.90;;;;;;5051526;28;20206;-51
2023/08/26 11:20:44;;;;;;;2.30;1.13;;;22.90;99.90;;;;;;5052345;28;20210;-51
2023/08/26 11:23:10;;;;;;;3.53;1.30;;;22.70;99.90;;;;;;5052308;28;20736;-51
2023/08/26 11:25:37;;;;;;;3.25;1.10;;;22.50;99.90;;;;;;5051842;28;20166;-51
2023/08/26 11:28:04;;;;;;;3.47;1.20;;;22.30;99.90;;;;;;5052006;28;20178;-52
2023/08/26 11:30:30;;;;;;;4.10;1.45;;;22.50;99.90;;;;;;5033955;28;20664;-51
2023/08/26 11:32:59;;;;;;;3.83;1.20;;;22.50;99.90;;;;;;5051720;28;20204;-51
2023/08/26 11:35:25;;;;;;;2.40;1.20;;;22.40;99.90;;;;;;5051736;28;20167;-51
2023/08/26 11:37:51;;;;;;;2.75;1.17;;;22.30;99.90;;;;;;5051419;28;20225;-51
2023/08/26 11:40:16;;;;;;;2.95;1.25;;;22.50;99.90;;;;;;5033645;28;20174;-52
2023/08/26 11:42:44;;;;;;;2.63;1.45;;;22.90;99.90;;;;;;5052002;28;20658;-51
2023/08/26 11:45:12;;;;;;;1.73;1.38;;;23.20;99.90;;;;;;5052225;28;20170;-51
2023/08/26 11:47:40;;;;;;;4.55;1.20;;;19.20;99.90;;;;;;5051894;28;20173;-51
2023/08/26 11:50:06;;;;;;;1.88;1.10;;;22.50;99.90;;;;;;5051668;28;20181;-50
2023/08/26 11:52:36;;;;;;;4.07;1.45;;;22.20;99.90;;;;;;5051298;28;20166;-51
2023/08/26 11:55:04;;;;;;;2.40;1.15;;;22.00;99.90;;;;;;5051634;28;20226;-51
2023/08/26 11:57:35;;;;;;;1.77;1.20;;;22.00;99.90;;;;;;5051663;28;20186;-51
2023/08/26 12:00:12;;;;;;;3.28;1.50;;;22.10;99.90;;;;;;5051366;28;20178;-51
2023/08/26 12:02:38;;;;;;;2.83;1.17;;;22.00;99.90;;;;;;5051824;28;20154;-52
2023/08/26 12:05:04;;;;;;;2.05;1.30;;;22.20;99.90;;;;;;5051602;28;20526;-51
2023/08/26 12:07:30;;;;;;;2.78;1.20;;;22.30;99.90;;;;;;5051576;28;20204;-52
2023/08/26 12:09:57;;;;;;;2.67;1.35;;;22.20;99.90;;;;;;5051277;28;20173;-51
2023/08/26 12:12:24;;;;;;;3.13;1.27;;;22.30;99.90;;;;;;5051515;28;20537;-51
2023/08/26 12:14:51;;;;;;;2.85;1.23;;;22.50;99.90;;;;;;5051237;28;20633;-51
2023/08/26 12:17:17;;;;;;;5.00;1.52;;;22.90;99.90;;;;;;5051353;28;20206;-51
2023/08/26 12:19:43;;;;;;;4.07;1.55;;;23.00;99.90;;;;;;5051221;28;20533;-50
2023/08/26 12:22:10;;;;;;;2.08;1.42;;;22.90;99.90;;;;;;5051555;28;20176;-52
2023/08/26 12:24:39;;;;;;;1.88;1.35;;;22.50;99.90;;;;;;5051167;28;20224;-51
2023/08/26 12:27:08;;;;;;;1.92;1.15;;;22.30;99.90;;;;;;5051387;28;20209;-51
2023/08/26 12:29:34;;;;;;;1.90;1.45;;;22.30;99.90;;;;;;5052194;28;20645;-50
2023/08/26 12:32:00;;;;;;;1.02;0.90;;;23.00;99.90;;;;;;5055107;28;20174;-51
2023/08/26 12:34:25;;;;;;;3.65;1.17;;;22.90;99.90;;;;;;5055304;28;20174;-51
2023/08/26 12:36:51;;;;;;;3.60;1.33;;;22.80;99.90;;;;;;5054800;28;20217;-51
2023/08/26 12:39:16;;;;;;;2.45;1.20;;;22.70;99.90;;;;;;5055216;28;20638;-52
2023/08/26 12:41:42;;;;;;;3.75;1.20;;;22.70;99.90;;;;;;5055341;28;20642;-51
2023/08/26 12:44:08;;;;;;;4.88;1.50;;;22.30;99.90;;;;;;5055342;28;20696;-51